Flugplatz Leck

Für EDXK sind keine METAR/TAF Berichte vorhanden.
Es werden die Flugwettermeldungen vom Flugplatz Westerland Sylt in 41 km Entfernung angezeigt.

Bericht für EDXW

vom 25.09. um 20:20 UTC

kein Wind

Sichtweite 10 km oder mehr

aufgelockert bewölkt in 22000 ft

Temperatur 7.0°C

Taupunkt 4.0°C

Luftfeuchtigkeit 81%

Luftdruck 996 hPa

EDXW 252020Z AUTO 00000KT 9999 // SCT220/// 07/04 Q0996

Prognose für EDXW

vom 25.09. um 17:00 UTC

Zwischen 18:00 UTC und 21:00 UTC

Wind 4 kt aus 220°

Sichtweite 10 km oder mehr

keine signifikanten Wettererscheinungen

keine Wolken


Zwischen 18:00 und 20:00 UTC übergehend zu

Wind 5 kt aus 290°

Sichtweite 10 km oder mehr

keine signifikanten Wettererscheinungen

keine Wolken

TAF EDXW 251700Z 2518/2521 22004KT CAVOK BECMG 2518/2520 29005KT
Impressum